sensor_id;sensor_type;location;lat;lon;timestamp;pressure;altitude;pressure_sealevel;temperature;humidity
75409;BME280;63979;55.644;37.734;2023-02-01T00:00:25;98978.66;;;0.90;77.80
75409;BME280;63979;55.644;37.734;2023-02-01T00:05:26;98984.31;;;0.81;78.06
75409;BME280;63979;55.644;37.734;2023-02-01T00:10:27;98978.22;;;0.81;77.86
75409;BME280;63979;55.644;37.734;2023-02-01T00:15:28;98980.50;;;0.88;77.58
75409;BME280;63979;55.644;37.734;2023-02-01T00:20:29;98974.59;;;0.83;76.90
75409;BME280;63979;55.644;37.734;2023-02-01T00:25:31;98984.13;;;0.86;77.39
75409;BME280;63979;55.644;37.734;2023-02-01T00:30:32;98986.41;;;0.93;76.85
75409;BME280;63979;55.644;37.734;2023-02-01T00:35:34;98984.84;;;0.89;77.08
75409;BME280;63979;55.644;37.734;2023-02-01T00:40:35;98989.00;;;0.75;77.21
75409;BME280;63979;55.644;37.734;2023-02-01T00:45:36;98987.00;;;0.80;77.16
75409;BME280;63979;55.644;37.734;2023-02-01T00:50:42;98979.72;;;0.86;76.78
75409;BME280;63979;55.644;37.734;2023-02-01T00:55:47;98977.09;;;0.86;77.23
75409;BME280;63979;55.644;37.734;2023-02-01T01:00:49;98982.72;;;0.98;76.25
75409;BME280;63979;55.644;37.734;2023-02-01T01:05:50;98986.16;;;1.00;76.22
75409;BME280;63979;55.644;37.734;2023-02-01T01:10:52;98965.47;;;0.92;76.58
75409;BME280;63979;55.644;37.734;2023-02-01T01:15:53;98988.38;;;0.88;76.40
75409;BME280;63979;55.644;37.734;2023-02-01T01:20:54;98990.69;;;0.96;76.61
75409;BME280;63979;55.644;37.734;2023-02-01T01:25:55;98949.66;;;0.73;75.99
75409;BME280;63979;55.644;37.734;2023-02-01T01:30:56;98985.28;;;0.99;76.66
75409;BME280;63979;55.644;37.734;2023-02-01T01:35:57;98991.47;;;0.98;76.10
75409;BME280;63979;55.644;37.734;2023-02-01T01:40:58;98986.03;;;0.82;76.75
75409;BME280;63979;55.644;37.734;2023-02-01T01:46:00;98997.59;;;0.78;77.03
75409;BME280;63979;55.644;37.734;2023-02-01T01:51:07;98995.69;;;0.82;76.88
75409;BME280;63979;55.644;37.734;2023-02-01T01:56:10;98966.56;;;0.66;76.57
75409;BME280;63979;55.644;37.734;2023-02-01T02:01:11;98988.53;;;0.85;76.77
75409;BME280;63979;55.644;37.734;2023-02-01T02:06:20;98995.34;;;0.89;76.76
75409;BME280;63979;55.644;37.734;2023-02-01T02:11:25;98997.00;;;0.92;76.22
75409;BME280;63979;55.644;37.734;2023-02-01T02:37:50;99012.03;;;0.88;76.33
75409;BME280;63979;55.644;37.734;2023-02-01T02:48:37;99006.38;;;0.98;76.37
75409;BME280;63979;55.644;37.734;2023-02-01T02:53:51;99021.69;;;0.88;76.56
75409;BME280;63979;55.644;37.734;2023-02-01T02:59:15;99017.81;;;0.97;76.33
75409;BME280;63979;55.644;37.734;2023-02-01T03:04:37;99014.75;;;1.07;76.65
75409;BME280;63979;55.644;37.734;2023-02-01T03:09:40;99016.44;;;0.88;76.74
75409;BME280;63979;55.644;37.734;2023-02-01T03:14:45;99015.84;;;1.02;76.46
75409;BME280;63979;55.644;37.734;2023-02-01T03:19:50;99024.38;;;0.86;77.16
75409;BME280;63979;55.644;37.734;2023-02-01T03:25:10;99005.59;;;0.75;77.50
75409;BME280;63979;55.644;37.734;2023-02-01T03:30:30;99008.81;;;0.82;77.48
75409;BME280;63979;55.644;37.734;2023-02-01T03:35:50;98980.81;;;0.40;78.07
75409;BME280;63979;55.644;37.734;2023-02-01T03:46:20;99025.03;;;0.71;77.56
75409;BME280;63979;55.644;37.734;2023-02-01T03:51:24;99026.16;;;0.86;77.41
75409;BME280;63979;55.644;37.734;2023-02-01T03:56:27;99037.84;;;0.79;77.44
75409;BME280;63979;55.644;37.734;2023-02-01T04:01:30;99042.25;;;0.78;77.84
75409;BME280;63979;55.644;37.734;2023-02-01T04:06:32;99044.66;;;0.83;77.54
75409;BME280;63979;55.644;37.734;2023-02-01T04:11:33;99027.88;;;0.65;77.48
75409;BME280;63979;55.644;37.734;2023-02-01T04:16:34;99045.06;;;0.52;78.83
75409;BME280;63979;55.644;37.734;2023-02-01T04:21:35;99020.47;;;0.54;77.37
75409;BME280;63979;55.644;37.734;2023-02-01T04:26:36;99059.97;;;0.73;77.68
75409;BME280;63979;55.644;37.734;2023-02-01T04:31:37;99068.13;;;0.66;78.52
75409;BME280;63979;55.644;37.734;2023-02-01T04:36:38;99071.66;;;0.86;77.55
75409;BME280;63979;55.644;37.734;2023-02-01T04:41:40;99047.69;;;0.52;77.90
75409;BME280;63979;55.644;37.734;2023-02-01T04:46:41;99091.75;;;0.66;78.25
75409;BME280;63979;55.644;37.734;2023-02-01T04:51:43;99089.19;;;0.64;78.51
75409;BME280;63979;55.644;37.734;2023-02-01T04:56:44;99104.03;;;0.65;78.66
75409;BME280;63979;55.644;37.734;2023-02-01T05:01:45;99098.13;;;0.60;78.60
75409;BME280;63979;55.644;37.734;2023-02-01T05:06:45;99115.19;;;0.72;78.32
75409;BME280;63979;55.644;37.734;2023-02-01T05:11:47;99105.50;;;0.50;79.30
75409;BME280;63979;55.644;37.734;2023-02-01T05:17:06;99104.66;;;0.50;79.07
75409;BME280;63979;55.644;37.734;2023-02-01T05:22:07;99081.28;;;0.44;78.96
75409;BME280;63979;55.644;37.734;2023-02-01T05:27:08;99112.84;;;0.64;78.95
75409;BME280;63979;55.644;37.734;2023-02-01T05:32:09;99115.94;;;0.52;79.13
75409;BME280;63979;55.644;37.734;2023-02-01T05:37:11;99095.06;;;0.49;78.15
75409;BME280;63979;55.644;37.734;2023-02-01T05:42:12;99126.63;;;0.47;79.45
75409;BME280;63979;55.644;37.734;2023-02-01T05:47:13;99117.59;;;0.54;78.73
75409;BME280;63979;55.644;37.734;2023-02-01T05:52:14;99127.59;;;0.67;78.67
75409;BME280;63979;55.644;37.734;2023-02-01T05:57:19;99138.72;;;0.51;78.86
75409;BME280;63979;55.644;37.734;2023-02-01T06:02:20;99123.59;;;0.58;79.41
75409;BME280;63979;55.644;37.734;2023-02-01T06:07:22;99130.78;;;0.53;78.79
75409;BME280;63979;55.644;37.734;2023-02-01T06:12:23;99146.53;;;0.53;78.70
75409;BME280;63979;55.644;37.734;2023-02-01T06:17:23;99147.28;;;0.56;78.90
75409;BME280;63979;55.644;37.734;2023-02-01T06:22:24;99153.44;;;0.55;78.79
75409;BME280;63979;55.644;37.734;2023-02-01T06:27:25;99146.78;;;0.47;78.76
75409;BME280;63979;55.644;37.734;2023-02-01T06:32:27;99156.75;;;0.60;78.74
75409;BME280;63979;55.644;37.734;2023-02-01T06:37:28;99145.56;;;0.55;78.37
75409;BME280;63979;55.644;37.734;2023-02-01T06:42:30;99158.91;;;0.73;77.08
75409;BME280;63979;55.644;37.734;2023-02-01T06:47:30;99134.69;;;0.65;77.36
75409;BME280;63979;55.644;37.734;2023-02-01T06:52:31;99162.06;;;0.81;76.59
75409;BME280;63979;55.644;37.734;2023-02-01T06:57:32;99163.38;;;0.71;77.17
75409;BME280;63979;55.644;37.734;2023-02-01T07:02:34;99169.13;;;0.57;77.15
75409;BME280;63979;55.644;37.734;2023-02-01T07:07:35;99159.75;;;0.73;76.90
75409;BME280;63979;55.644;37.734;2023-02-01T07:12:36;99167.47;;;0.54;77.11
75409;BME280;63979;55.644;37.734;2023-02-01T07:17:37;99165.00;;;0.73;76.70
75409;BME280;63979;55.644;37.734;2023-02-01T07:22:38;99175.38;;;0.98;76.57
75409;BME280;63979;55.644;37.734;2023-02-01T07:27:39;99187.13;;;1.11;75.75
75409;BME280;63979;55.644;37.734;2023-02-01T07:32:40;99182.59;;;1.15;75.30
75409;BME280;63979;55.644;37.734;2023-02-01T07:37:41;99189.91;;;1.29;74.71
75409;BME280;63979;55.644;37.734;2023-02-01T07:42:42;99192.56;;;1.07;74.73
75409;BME280;63979;55.644;37.734;2023-02-01T07:47:43;99177.00;;;1.44;73.76
75409;BME280;63979;55.644;37.734;2023-02-01T07:52:44;99187.91;;;1.13;74.54
75409;BME280;63979;55.644;37.734;2023-02-01T07:57:44;99185.41;;;1.10;74.81
75409;BME280;63979;55.644;37.734;2023-02-01T08:02:46;99180.75;;;0.95;75.09
75409;BME280;63979;55.644;37.734;2023-02-01T08:07:49;99182.72;;;1.12;74.42
75409;BME280;63979;55.644;37.734;2023-02-01T08:12:51;99183.94;;;1.03;74.46
75409;BME280;63979;55.644;37.734;2023-02-01T08:17:52;99150.94;;;1.18;73.79
75409;BME280;63979;55.644;37.734;2023-02-01T08:22:55;99164.09;;;1.38;72.84
75409;BME280;63979;55.644;37.734;2023-02-01T08:27:56;99154.06;;;1.48;72.38
75409;BME280;63979;55.644;37.734;2023-02-01T08:32:57;99161.09;;;1.47;71.80
75409;BME280;63979;55.644;37.734;2023-02-01T08:37:58;99127.69;;;1.29;71.80
75409;BME280;63979;55.644;37.734;2023-02-01T08:42:59;99176.88;;;1.68;71.79
75409;BME280;63979;55.644;37.734;2023-02-01T08:48:01;99177.41;;;1.55;71.55
75409;BME280;63979;55.644;37.734;2023-02-01T08:53:02;99162.81;;;1.48;71.62
75409;BME280;63979;55.644;37.734;2023-02-01T08:58:03;99176.59;;;1.53;71.59
75409;BME280;63979;55.644;37.734;2023-02-01T09:03:04;99154.69;;;1.33;71.73
75409;BME280;63979;55.644;37.734;2023-02-01T09:08:06;99166.94;;;1.54;71.86
75409;BME280;63979;55.644;37.734;2023-02-01T09:13:08;99119.59;;;1.34;71.30
75409;BME280;63979;55.644;37.734;2023-02-01T09:18:09;99167.47;;;1.62;70.87
75409;BME280;63979;55.644;37.734;2023-02-01T09:23:10;99160.94;;;1.71;70.77
75409;BME280;63979;55.644;37.734;2023-02-01T09:28:11;99171.22;;;1.56;72.14
75409;BME280;63979;55.644;37.734;2023-02-01T09:33:12;99156.81;;;1.45;72.12
75409;BME280;63979;55.644;37.734;2023-02-01T09:38:12;99161.28;;;1.63;72.44
75409;BME280;63979;55.644;37.734;2023-02-01T09:43:38;99164.34;;;1.73;71.48
75409;BME280;63979;55.644;37.734;2023-02-01T09:48:43;99159.25;;;1.70;71.20
75409;BME280;63979;55.644;37.734;2023-02-01T09:53:48;99163.34;;;1.77;70.58
75409;BME280;63979;55.644;37.734;2023-02-01T09:59:15;99155.38;;;1.78;70.77
75409;BME280;63979;55.644;37.734;2023-02-01T10:04:19;99144.38;;;1.89;70.23
75409;BME280;63979;55.644;37.734;2023-02-01T10:30:45;99113.94;;;2.02;69.52
75409;BME280;63979;55.644;37.734;2023-02-01T10:35:52;99137.41;;;2.07;69.99
75409;BME280;63979;55.644;37.734;2023-02-01T10:40:59;99115.56;;;1.66;70.00
75409;BME280;63979;55.644;37.734;2023-02-01T10:46:01;99127.09;;;1.22;71.25
75409;BME280;63979;55.644;37.734;2023-02-01T10:51:08;99133.47;;;1.17;72.32
75409;BME280;63979;55.644;37.734;2023-02-01T10:56:13;99136.91;;;1.39;72.02
75409;BME280;63979;55.644;37.734;2023-02-01T11:01:25;99135.03;;;1.21;71.91
75409;BME280;63979;55.644;37.734;2023-02-01T11:11:32;99133.28;;;1.42;71.62
75409;BME280;63979;55.644;37.734;2023-02-01T11:16:36;99127.28;;;1.59;71.04
75409;BME280;63979;55.644;37.734;2023-02-01T11:21:37;99139.78;;;1.33;72.27
75409;BME280;63979;55.644;37.734;2023-02-01T11:26:42;99128.78;;;1.23;72.03
75409;BME280;63979;55.644;37.734;2023-02-01T11:31:42;99104.34;;;1.21;71.42
75409;BME280;63979;55.644;37.734;2023-02-01T11:36:46;99150.06;;;1.39;71.28
75409;BME280;63979;55.644;37.734;2023-02-01T11:42:30;99142.47;;;1.32;71.00
75409;BME280;63979;55.644;37.734;2023-02-01T11:47:39;99150.28;;;1.33;70.90
75409;BME280;63979;55.644;37.734;2023-02-01T12:14:14;99187.59;;;1.21;68.71
75409;BME280;63979;55.644;37.734;2023-02-01T12:19:28;99187.72;;;1.18;68.87
75409;BME280;63979;55.644;37.734;2023-02-01T12:41:27;99180.56;;;1.43;69.54
75409;BME280;63979;55.644;37.734;2023-02-01T12:46:31;99180.50;;;1.45;68.80
75409;BME280;63979;55.644;37.734;2023-02-01T12:51:40;99193.06;;;1.37;68.96
75409;BME280;63979;55.644;37.734;2023-02-01T12:57:00;99174.50;;;1.41;68.61
75409;BME280;63979;55.644;37.734;2023-02-01T13:02:18;99199.28;;;1.56;67.95
75409;BME280;63979;55.644;37.734;2023-02-01T13:07:31;99190.28;;;1.41;69.10
75409;BME280;63979;55.644;37.734;2023-02-01T13:12:44;99191.84;;;1.66;68.06
75409;BME280;63979;55.644;37.734;2023-02-01T13:17:49;99194.06;;;1.34;67.86
75409;BME280;63979;55.644;37.734;2023-02-01T13:23:03;99196.53;;;1.17;68.91
75409;BME280;63979;55.644;37.734;2023-02-01T13:28:22;99194.63;;;1.20;68.65
75409;BME280;63979;55.644;37.734;2023-02-01T13:33:35;99188.94;;;1.31;68.48
75409;BME280;63979;55.644;37.734;2023-02-01T13:44:15;99185.81;;;1.21;70.48
75409;BME280;63979;55.644;37.734;2023-02-01T13:49:24;99198.72;;;1.28;69.75
75409;BME280;63979;55.644;37.734;2023-02-01T13:54:30;99207.91;;;1.17;70.21
75409;BME280;63979;55.644;37.734;2023-02-01T14:04:47;99204.09;;;1.03;70.56
75409;BME280;63979;55.644;37.734;2023-02-01T14:09:48;99204.53;;;0.92;70.37
75409;BME280;63979;55.644;37.734;2023-02-01T14:14:50;99204.03;;;0.82;71.07
75409;BME280;63979;55.644;37.734;2023-02-01T14:20:36;99202.16;;;0.86;70.40
75409;BME280;63979;55.644;37.734;2023-02-01T14:25:32;99186.81;;;0.75;70.60
75409;BME280;63979;55.644;37.734;2023-02-01T14:30:33;99208.94;;;0.91;69.87
75409;BME280;63979;55.644;37.734;2023-02-01T14:35:35;99220.00;;;0.78;70.41
75409;BME280;63979;55.644;37.734;2023-02-01T14:40:37;99218.03;;;0.83;70.08
75409;BME280;63979;55.644;37.734;2023-02-01T14:50:41;99225.00;;;0.84;70.53
75409;BME280;63979;55.644;37.734;2023-02-01T15:00:56;99231.47;;;0.75;71.21
75409;BME280;63979;55.644;37.734;2023-02-01T15:05:59;99231.69;;;0.69;71.10
75409;BME280;63979;55.644;37.734;2023-02-01T15:11:02;99231.78;;;0.66;71.88
75409;BME280;63979;55.644;37.734;2023-02-01T15:16:11;99224.72;;;0.68;71.77
75409;BME280;63979;55.644;37.734;2023-02-01T15:21:21;99182.63;;;0.24;71.95
75409;BME280;63979;55.644;37.734;2023-02-01T15:26:30;99248.75;;;0.57;72.39
75409;BME280;63979;55.644;37.734;2023-02-01T15:31:38;99195.50;;;0.30;71.93
75409;BME280;63979;55.644;37.734;2023-02-01T15:36:40;99242.94;;;0.73;71.89
75409;BME280;63979;55.644;37.734;2023-02-01T15:41:42;99245.34;;;0.55;72.31
75409;BME280;63979;55.644;37.734;2023-02-01T15:46:47;99203.19;;;0.37;72.47
75409;BME280;63979;55.644;37.734;2023-02-01T15:51:49;99250.53;;;0.57;72.18
75409;BME280;63979;55.644;37.734;2023-02-01T15:56:55;99256.22;;;0.68;72.30
75409;BME280;63979;55.644;37.734;2023-02-01T16:01:56;99251.38;;;0.57;72.66
75409;BME280;63979;55.644;37.734;2023-02-01T16:06:59;99257.59;;;0.55;72.67
75409;BME280;63979;55.644;37.734;2023-02-01T16:12:02;99263.44;;;0.40;73.29
75409;BME280;63979;55.644;37.734;2023-02-01T16:17:04;99256.94;;;0.50;73.30
75409;BME280;63979;55.644;37.734;2023-02-01T16:22:05;99263.78;;;0.54;73.49
75409;BME280;63979;55.644;37.734;2023-02-01T16:27:05;99263.16;;;0.47;73.68
75409;BME280;63979;55.644;37.734;2023-02-01T16:32:18;99265.38;;;0.58;74.17
75409;BME280;63979;55.644;37.734;2023-02-01T16:37:22;99269.38;;;0.45;73.89
75409;BME280;63979;55.644;37.734;2023-02-01T16:42:23;99266.00;;;0.41;73.67
75409;BME280;63979;55.644;37.734;2023-02-01T16:47:24;99278.09;;;0.45;74.44
75409;BME280;63979;55.644;37.734;2023-02-01T16:52:25;99234.03;;;0.30;73.86
75409;BME280;63979;55.644;37.734;2023-02-01T16:57:27;99285.47;;;0.34;73.53
75409;BME280;63979;55.644;37.734;2023-02-01T17:02:29;99279.75;;;0.48;72.79
75409;BME280;63979;55.644;37.734;2023-02-01T17:07:31;99281.47;;;0.49;73.61
75409;BME280;63979;55.644;37.734;2023-02-01T17:12:32;99276.44;;;0.43;72.76
75409;BME280;63979;55.644;37.734;2023-02-01T17:17:36;99284.56;;;0.37;71.10
75409;BME280;63979;55.644;37.734;2023-02-01T17:22:38;99280.50;;;0.26;69.61
75409;BME280;63979;55.644;37.734;2023-02-01T17:27:39;99286.50;;;0.30;69.76
75409;BME280;63979;55.644;37.734;2023-02-01T17:32:41;99281.81;;;0.40;70.49
75409;BME280;63979;55.644;37.734;2023-02-01T17:37:42;99255.44;;;0.43;70.79
75409;BME280;63979;55.644;37.734;2023-02-01T17:42:43;99265.94;;;0.43;70.74
75409;BME280;63979;55.644;37.734;2023-02-01T17:47:45;99276.28;;;0.47;70.13
75409;BME280;63979;55.644;37.734;2023-02-01T17:52:47;99241.88;;;0.30;70.46
75409;BME280;63979;55.644;37.734;2023-02-01T17:57:48;99280.63;;;0.48;70.55
75409;BME280;63979;55.644;37.734;2023-02-01T18:02:50;99278.91;;;0.47;70.26
75409;BME280;63979;55.644;37.734;2023-02-01T18:07:51;99268.34;;;0.49;69.62
75409;BME280;63979;55.644;37.734;2023-02-01T18:12:51;99250.31;;;0.40;69.84
75409;BME280;63979;55.644;37.734;2023-02-01T18:17:53;99260.75;;;0.41;70.40
75409;BME280;63979;55.644;37.734;2023-02-01T18:22:54;99265.94;;;0.43;71.48
75409;BME280;63979;55.644;37.734;2023-02-01T18:27:55;99259.66;;;0.47;72.09
75409;BME280;63979;55.644;37.734;2023-02-01T18:32:59;99260.38;;;0.27;71.61
75409;BME280;63979;55.644;37.734;2023-02-01T18:38:00;99255.56;;;0.40;71.66
75409;BME280;63979;55.644;37.734;2023-02-01T18:43:01;99264.22;;;0.42;71.72
75409;BME280;63979;55.644;37.734;2023-02-01T18:48:04;99252.78;;;0.19;71.82
75409;BME280;63979;55.644;37.734;2023-02-01T18:53:16;99257.63;;;0.30;70.91
75409;BME280;63979;55.644;37.734;2023-02-01T18:58:20;99259.34;;;0.31;70.54
75409;BME280;63979;55.644;37.734;2023-02-01T19:03:26;99249.03;;;0.26;70.56
75409;BME280;63979;55.644;37.734;2023-02-01T19:08:28;99224.44;;;0.06;70.45
75409;BME280;63979;55.644;37.734;2023-02-01T19:13:29;99272.81;;;0.22;71.37
75409;BME280;63979;55.644;37.734;2023-02-01T19:18:30;99276.47;;;0.18;73.66
75409;BME280;63979;55.644;37.734;2023-02-01T19:23:31;99260.94;;;0.12;73.70
75409;BME280;63979;55.644;37.734;2023-02-01T19:28:32;99270.47;;;0.14;73.46
75409;BME280;63979;55.644;37.734;2023-02-01T19:33:34;99225.34;;;-0.20;74.07
75409;BME280;63979;55.644;37.734;2023-02-01T19:38:35;99271.94;;;-0.04;75.44
75409;BME280;63979;55.644;37.734;2023-02-01T19:43:36;99282.31;;;0.01;76.93
75409;BME280;63979;55.644;37.734;2023-02-01T19:48:39;99284.31;;;-0.07;77.35
75409;BME280;63979;55.644;37.734;2023-02-01T19:53:40;99280.50;;;-0.23;78.14
75409;BME280;63979;55.644;37.734;2023-02-01T19:58:41;99282.00;;;-0.16;77.94
75409;BME280;63979;55.644;37.734;2023-02-01T20:03:42;99276.97;;;-0.22;78.03
75409;BME280;63979;55.644;37.734;2023-02-01T20:08:43;99274.34;;;-0.22;77.95
75409;BME280;63979;55.644;37.734;2023-02-01T20:13:44;99287.56;;;-0.25;76.90
75409;BME280;63979;55.644;37.734;2023-02-01T20:18:45;99281.25;;;-0.20;77.15
75409;BME280;63979;55.644;37.734;2023-02-01T20:23:46;99283.19;;;-0.25;76.27
75409;BME280;63979;55.644;37.734;2023-02-01T20:28:49;99242.91;;;-0.49;77.08
75409;BME280;63979;55.644;37.734;2023-02-01T20:33:50;99278.16;;;-0.31;76.53
75409;BME280;63979;55.644;37.734;2023-02-01T20:38:53;99283.34;;;-0.29;76.71
75409;BME280;63979;55.644;37.734;2023-02-01T20:43:55;99291.09;;;-0.26;77.07
75409;BME280;63979;55.644;37.734;2023-02-01T20:48:56;99297.84;;;-0.19;77.46
75409;BME280;63979;55.644;37.734;2023-02-01T20:53:57;99291.00;;;-0.23;78.12
75409;BME280;63979;55.644;37.734;2023-02-01T20:58:58;99280.50;;;-0.23;77.98
75409;BME280;63979;55.644;37.734;2023-02-01T21:04:08;99289.38;;;-0.27;77.83
75409;BME280;63979;55.644;37.734;2023-02-01T21:09:09;99282.53;;;-0.32;78.12
75409;BME280;63979;55.644;37.734;2023-02-01T21:14:11;99291.00;;;-0.23;77.91
75409;BME280;63979;55.644;37.734;2023-02-01T21:19:12;99266.69;;;-0.28;77.25
75409;BME280;63979;55.644;37.734;2023-02-01T21:24:13;99280.50;;;-0.23;77.81
75409;BME280;63979;55.644;37.734;2023-02-01T21:29:14;99275.38;;;-0.26;77.27
75409;BME280;63979;55.644;37.734;2023-02-01T21:34:15;99243.88;;;-0.51;76.96
75409;BME280;63979;55.644;37.734;2023-02-01T21:39:16;99283.50;;;-0.34;76.96
75409;BME280;63979;55.644;37.734;2023-02-01T21:44:17;99274.78;;;-0.35;77.08
75409;BME280;63979;55.644;37.734;2023-02-01T21:49:18;99289.44;;;-0.29;76.33
75409;BME280;63979;55.644;37.734;2023-02-01T21:54:20;99245.47;;;-0.47;76.13
75409;BME280;63979;55.644;37.734;2023-02-01T21:59:20;99286.97;;;-0.34;77.52
75409;BME280;63979;55.644;37.734;2023-02-01T22:04:21;99285.38;;;-0.39;77.77
75409;BME280;63979;55.644;37.734;2023-02-01T22:09:24;99234.66;;;-0.63;77.24
75409;BME280;63979;55.644;37.734;2023-02-01T22:14:25;99280.63;;;-0.26;76.49
75409;BME280;63979;55.644;37.734;2023-02-01T22:19:26;99290.09;;;-0.22;76.47
75409;BME280;63979;55.644;37.734;2023-02-01T22:24:27;99243.59;;;-0.44;76.35
75409;BME280;63979;55.644;37.734;2023-02-01T22:29:27;99286.13;;;-0.36;77.00
75409;BME280;63979;55.644;37.734;2023-02-01T22:34:29;99279.38;;;-0.16;76.15
75409;BME280;63979;55.644;37.734;2023-02-01T22:39:29;99281.72;;;-0.34;76.47
75409;BME280;63979;55.644;37.734;2023-02-01T22:44:30;99289.38;;;-0.27;76.64
75409;BME280;63979;55.644;37.734;2023-02-01T22:49:31;99283.94;;;-0.21;76.44
75409;BME280;63979;55.644;37.734;2023-02-01T22:54:32;99231.94;;;-0.60;76.46
75409;BME280;63979;55.644;37.734;2023-02-01T22:59:33;99241.44;;;-0.57;76.72
75409;BME280;63979;55.644;37.734;2023-02-01T23:04:34;99277.28;;;-0.32;76.59
75409;BME280;63979;55.644;37.734;2023-02-01T23:09:35;99285.16;;;-0.32;77.02
75409;BME280;63979;55.644;37.734;2023-02-01T23:14:35;99279.88;;;-0.30;77.29
75409;BME280;63979;55.644;37.734;2023-02-01T23:19:56;99280.94;;;-0.37;77.26
75409;BME280;63979;55.644;37.734;2023-02-01T23:24:57;99280.19;;;-0.41;77.38
75409;BME280;63979;55.644;37.734;2023-02-01T23:29:58;99274.78;;;-0.36;76.88
75409;BME280;63979;55.644;37.734;2023-02-01T23:34:59;99279.81;;;-0.28;76.67
75409;BME280;63979;55.644;37.734;2023-02-01T23:40:00;99279.00;;;-0.30;76.42
75409;BME280;63979;55.644;37.734;2023-02-01T23:45:03;99287.78;;;-0.32;77.04
75409;BME280;63979;55.644;37.734;2023-02-01T23:50:04;99252.09;;;-0.62;76.91
75409;BME280;63979;55.644;37.734;2023-02-01T23:55:06;99249.75;;;-0.45;76.60
